Time;durP1;ratioP1;P1;durP2;ratioP2;P2;SDS_P1;SDS_P2;PMS_P1;PMS_P2;Temp;Humidity;BMP_temperature;BMP_pressure;BME280_temperature;BME280_humidity;BME280_pressure;Samples;Min_cycle;Max_cycle;Signal;HPM_P1;HPM_P2
2022/10/26 00:00:25;;;;;;;14.60;9.75;;;8.90;99.90;;;;;;5096891;28;20043;-81
2022/10/26 00:02:53;;;;;;;14.05;10.68;;;8.90;99.90;;;;;;5114443;28;20040;-82
2022/10/26 00:05:19;;;;;;;15.95;9.48;;;8.90;99.90;;;;;;5114360;28;20108;-82
2022/10/26 00:07:45;;;;;;;15.27;9.02;;;8.90;99.90;;;;;;5114289;28;20074;-83
2022/10/26 00:10:11;;;;;;;14.43;8.98;;;8.90;99.90;;;;;;5114063;28;20428;-82
2022/10/26 00:12:36;;;;;;;14.68;9.25;;;8.90;99.90;;;;;;5114369;28;20085;-82
2022/10/26 00:15:02;;;;;;;15.88;9.30;;;9.20;99.90;;;;;;5113163;28;20031;-82
2022/10/26 00:17:28;;;;;;;14.75;10.05;;;8.90;99.90;;;;;;5114539;28;20087;-81
2022/10/26 00:19:53;;;;;;;16.08;9.70;;;8.90;99.90;;;;;;5114230;28;20467;-82
2022/10/26 00:22:19;;;;;;;16.90;10.20;;;9.00;99.90;;;;;;5113758;28;20039;-82
2022/10/26 00:24:44;;;;;;;15.30;9.48;;;8.90;99.90;;;;;;5114305;28;20390;-82
2022/10/26 00:27:10;;;;;;;14.82;9.63;;;8.90;99.90;;;;;;5113949;28;20052;-82
2022/10/26 00:29:36;;;;;;;13.55;8.27;;;9.00;99.90;;;;;;5114139;28;20047;-82
2022/10/26 00:32:01;;;;;;;16.65;9.52;;;8.90;99.90;;;;;;5114132;28;20032;-80
2022/10/26 00:34:27;;;;;;;15.68;9.40;;;9.00;99.90;;;;;;5113980;28;20133;-82
2022/10/26 00:36:52;;;;;;;15.73;9.45;;;9.00;99.90;;;;;;5116650;28;20035;-83
2022/10/26 00:39:18;;;;;;;15.30;8.77;;;8.90;99.90;;;;;;5118405;28;20550;-82
2022/10/26 00:41:43;;;;;;;15.30;10.15;;;8.90;99.90;;;;;;5118351;28;20110;-82
2022/10/26 00:44:54;;;;;;;16.25;8.65;;;8.90;99.90;;;;;;5116990;28;20039;-82
2022/10/26 00:47:44;;;;;;;16.35;9.27;;;8.90;99.90;;;;;;5118062;28;20039;-82
2022/10/26 00:50:34;;;;;;;14.38;9.02;;;8.90;99.90;;;;;;5118445;28;20048;-82
2022/10/26 00:53:03;;;;;;;14.70;8.25;;;8.90;99.90;;;;;;5117899;28;20482;-81
2022/10/26 00:55:36;;;;;;;18.55;8.93;;;8.90;99.90;;;;;;5118031;28;20046;-81
2022/10/26 00:58:04;;;;;;;12.85;9.27;;;8.80;99.90;;;;;;5117951;28;20058;-82
2022/10/26 01:00:30;;;;;;;14.85;8.45;;;8.80;99.90;;;;;;5117701;28;20506;-81
2022/10/26 01:03:00;;;;;;;17.02;9.35;;;8.80;99.90;;;;;;5116754;28;20040;-82
2022/10/26 01:05:26;;;;;;;16.20;9.77;;;8.80;99.90;;;;;;5117791;28;20050;-82
2022/10/26 01:07:53;;;;;;;17.35;9.88;;;8.80;99.90;;;;;;5117705;28;20039;-82
2022/10/26 01:10:19;;;;;;;;;;;8.80;99.90;;;;;;5118064;28;20074;-82
2022/10/26 01:12:45;;;;;;;16.17;10.30;;;8.80;99.90;;;;;;5117660;28;19919;-81
2022/10/26 01:15:12;;;;;;;14.47;9.53;;;8.80;99.90;;;;;;5117654;28;20043;-82
2022/10/26 01:18:06;;;;;;;20.45;9.98;;;8.70;99.90;;;;;;5117376;28;20494;-82
2022/10/26 01:20:50;;;;;;;19.00;9.98;;;8.80;99.90;;;;;;5105407;28;20483;-82
2022/10/26 01:23:40;;;;;;;14.93;9.15;;;8.70;99.90;;;;;;5117494;28;20046;-82
2022/10/26 01:26:37;;;;;;;20.42;11.10;;;8.70;99.90;;;;;;5115985;28;20050;-82
2022/10/26 01:29:10;;;;;;;15.68;9.27;;;8.70;99.90;;;;;;5117318;28;20400;-82
2022/10/26 01:31:43;;;;;;;20.42;10.98;;;8.70;99.90;;;;;;5117267;28;20035;-82
2022/10/26 01:34:21;;;;;;;18.00;10.63;;;8.70;99.90;;;;;;5115870;28;20039;-81
2022/10/26 01:36:57;;;;;;;23.00;10.82;;;8.70;99.90;;;;;;5117214;28;20088;-81
2022/10/26 01:39:28;;;;;;;18.73;12.25;;;8.70;99.90;;;;;;5117199;28;20039;-82
2022/10/26 01:42:00;;;;;;;22.67;12.20;;;8.70;99.90;;;;;;5117099;28;20077;-82
2022/10/26 01:44:38;;;;;;;18.05;11.55;;;8.70;99.90;;;;;;5117119;28;20031;-82
2022/10/26 01:47:05;;;;;;;23.15;12.75;;;8.60;99.90;;;;;;5116549;28;20039;-82
2022/10/26 01:49:37;;;;;;;21.58;12.68;;;8.60;99.90;;;;;;5116975;28;20064;-82
2022/10/26 01:52:02;;;;;;;24.33;10.90;;;8.60;99.90;;;;;;5116836;28;20117;-82
2022/10/26 01:54:28;;;;;;;15.48;10.57;;;8.60;99.90;;;;;;5116691;28;20039;-82
2022/10/26 01:56:59;;;;;;;19.33;10.50;;;8.60;99.90;;;;;;5115383;28;20035;-82
2022/10/26 01:59:47;;;;;;;17.73;11.10;;;8.60;99.90;;;;;;5116866;28;20046;-81
2022/10/26 02:02:44;;;;;;;16.13;11.10;;;8.60;99.90;;;;;;5116836;28;20122;-82
2022/10/26 02:05:28;;;;;;;16.75;11.48;;;8.60;99.90;;;;;;5115407;28;20487;-82
2022/10/26 02:08:19;;;;;;;18.00;11.32;;;8.50;99.90;;;;;;5116505;28;20059;-82
2022/10/26 02:11:06;;;;;;;17.42;12.07;;;8.50;99.90;;;;;;5116537;28;20047;-82
2022/10/26 02:13:45;;;;;;;23.85;12.65;;;8.50;99.90;;;;;;5116527;28;20089;-81
2022/10/26 02:16:20;;;;;;;23.27;13.13;;;8.50;99.90;;;;;;5116461;28;20043;-82
2022/10/26 02:19:08;;;;;;;21.70;13.95;;;8.50;99.90;;;;;;5116506;27;20036;-82
2022/10/26 02:21:43;;;;;;;24.85;13.27;;;8.50;99.90;;;;;;5116286;28;20044;-82
2022/10/26 02:24:12;;;;;;;26.75;13.63;;;8.50;99.90;;;;;;5116120;27;20124;-82
2022/10/26 02:26:40;;;;;;;24.90;14.02;;;8.50;99.90;;;;;;5115871;28;20059;-82
2022/10/26 02:29:12;;;;;;;19.23;12.40;;;8.60;99.90;;;;;;5116113;28;20055;-82
2022/10/26 02:31:41;;;;;;;19.55;12.95;;;8.60;99.90;;;;;;5116252;28;20085;-82
2022/10/26 02:34:12;;;;;;;22.85;14.48;;;8.60;99.90;;;;;;5116009;28;20392;-82
2022/10/26 02:36:41;;;;;;;21.27;12.90;;;8.60;99.90;;;;;;5115830;28;20558;-82
2022/10/26 02:39:09;;;;;;;18.67;11.93;;;8.70;99.90;;;;;;5115929;28;20050;-82
2022/10/26 02:41:37;;;;;;;24.88;12.52;;;8.70;99.90;;;;;;5115973;28;20050;-82
2022/10/26 02:44:21;;;;;;;20.35;13.55;;;8.70;99.90;;;;;;5115998;28;20044;-82
2022/10/26 02:46:48;;;;;;;22.13;12.77;;;8.70;99.90;;;;;;5115862;27;20039;-82
2022/10/26 02:49:13;;;;;;;20.85;12.40;;;8.70;99.90;;;;;;5115797;28;20075;-82
2022/10/26 02:52:03;;;;;;;19.23;11.20;;;8.70;99.90;;;;;;5114626;28;20039;-81
2022/10/26 02:54:29;;;;;;;23.65;12.43;;;8.70;99.90;;;;;;5115761;28;20097;-82
2022/10/26 02:56:59;;;;;;;24.60;12.63;;;8.70;99.90;;;;;;5115295;28;20039;-82
2022/10/26 02:59:29;;;;;;;21.45;13.25;;;8.70;99.90;;;;;;5114625;28;20054;-81
2022/10/26 03:01:55;;;;;;;21.15;12.82;;;8.70;99.90;;;;;;5114088;28;20031;-82
2022/10/26 03:04:28;;;;;;;19.73;12.20;;;8.70;99.90;;;;;;5115399;28;20444;-83
2022/10/26 03:06:54;;;;;;;26.85;12.95;;;8.80;99.90;;;;;;5114201;28;20043;-82
2022/10/26 03:09:20;;;;;;;31.70;14.27;;;8.80;99.90;;;;;;5115339;28;20043;-81
2022/10/26 03:11:45;;;;;;;22.15;12.40;;;8.80;99.90;;;;;;5115308;28;20118;-82
2022/10/26 03:14:11;;;;;;;20.52;11.35;;;8.80;99.90;;;;;;5115335;28;20365;-82
2022/10/26 03:16:36;;;;;;;25.30;12.93;;;8.80;99.90;;;;;;5115289;28;20036;-82
2022/10/26 03:19:02;;;;;;;23.27;12.02;;;8.80;99.90;;;;;;5115200;28;20036;-81
2022/10/26 03:21:28;;;;;;;25.63;12.77;;;8.80;99.90;;;;;;5115205;28;20399;-82
2022/10/26 03:23:54;;;;;;;23.10;12.80;;;8.80;99.90;;;;;;5114135;28;20036;-82
2022/10/26 03:26:19;;;;;;;25.67;13.82;;;8.80;99.90;;;;;;5114624;28;20052;-82
2022/10/26 03:28:45;;;;;;;20.67;13.05;;;8.80;99.90;;;;;;5114977;28;20058;-81
2022/10/26 03:31:11;;;;;;;24.23;13.13;;;8.80;99.90;;;;;;5114955;28;20035;-82
2022/10/26 03:33:36;;;;;;;24.00;13.43;;;8.80;99.90;;;;;;5114950;28;20043;-82
2022/10/26 03:36:02;;;;;;;27.67;12.70;;;8.80;99.90;;;;;;5114861;28;20122;-81
2022/10/26 03:38:28;;;;;;;21.70;13.75;;;8.80;99.90;;;;;;5114583;28;20131;-82
2022/10/26 03:40:53;;;;;;;21.60;12.18;;;8.80;99.90;;;;;;5114829;28;20043;-82
2022/10/26 03:43:19;;;;;;;21.33;12.35;;;8.80;99.90;;;;;;5113329;28;20104;-82
2022/10/26 03:45:45;;;;;;;23.45;12.23;;;8.80;99.90;;;;;;5114772;28;20440;-82
2022/10/26 03:48:10;;;;;;;23.85;12.63;;;8.80;99.90;;;;;;5114662;28;20031;-82
2022/10/26 03:50:36;;;;;;;22.77;12.52;;;8.80;99.90;;;;;;5114705;28;20440;-82
2022/10/26 03:53:01;;;;;;;22.33;11.90;;;8.90;99.90;;;;;;5114702;28;20390;-83
2022/10/26 03:55:27;;;;;;;20.95;12.50;;;8.90;99.90;;;;;;5114551;28;20032;-82
2022/10/26 03:57:52;;;;;;;26.40;13.65;;;8.90;99.90;;;;;;5113355;28;20084;-81
2022/10/26 04:00:18;;;;;;;27.45;13.23;;;8.90;99.90;;;;;;5114511;28;20028;-83
2022/10/26 04:02:47;;;;;;;19.35;12.27;;;8.90;99.90;;;;;;5114509;28;20057;-82
2022/10/26 04:05:13;;;;;;;20.20;14.25;;;8.90;99.90;;;;;;5114483;28;20046;-82
2022/10/26 04:07:38;;;;;;;24.90;14.73;;;8.90;99.90;;;;;;5114396;28;20032;-82
2022/10/26 04:10:05;;;;;;;24.10;15.02;;;8.90;99.90;;;;;;5113935;28;20807;-82
2022/10/26 04:12:31;;;;;;;24.73;14.23;;;8.90;99.90;;;;;;5114820;28;20379;-81
2022/10/26 04:14:57;;;;;;;21.98;13.85;;;8.90;99.90;;;;;;5114312;28;20110;-83
2022/10/26 04:17:23;;;;;;;20.38;12.13;;;8.90;99.90;;;;;;5113054;28;20043;-83
2022/10/26 04:19:49;;;;;;;19.90;11.43;;;8.90;99.90;;;;;;5113048;28;20042;-82
2022/10/26 04:22:15;;;;;;;21.45;11.98;;;8.90;99.90;;;;;;5114228;28;20035;-82
2022/10/26 04:24:40;;;;;;;20.55;12.50;;;8.90;99.90;;;;;;5114075;28;20039;-82
2022/10/26 04:27:06;;;;;;;25.70;12.70;;;8.90;99.90;;;;;;5113583;28;20090;-82
2022/10/26 04:29:31;;;;;;;20.55;11.95;;;9.00;99.90;;;;;;5113951;28;20044;-81
2022/10/26 04:31:57;;;;;;;24.48;12.13;;;9.00;99.90;;;;;;5112593;28;20487;-82
2022/10/26 04:34:22;;;;;;;22.42;11.25;;;9.00;99.90;;;;;;5114006;28;20032;-82
2022/10/26 04:36:48;;;;;;;17.45;10.88;;;9.00;99.90;;;;;;5095704;28;20031;-82
2022/10/26 04:39:14;;;;;;;18.73;10.50;;;9.00;99.90;;;;;;5113754;28;20122;-81
2022/10/26 04:41:39;;;;;;;20.88;10.95;;;9.00;99.90;;;;;;5113802;28;20039;-82
2022/10/26 04:44:05;;;;;;;19.80;11.00;;;9.10;99.90;;;;;;5114079;28;20031;-82
2022/10/26 04:46:30;;;;;;;17.83;11.45;;;9.10;99.90;;;;;;5113739;28;20088;-82
2022/10/26 04:48:56;;;;;;;15.13;9.75;;;9.10;99.90;;;;;;5113999;28;20035;-82
2022/10/26 04:51:21;;;;;;;20.52;11.05;;;9.10;99.90;;;;;;5113818;28;20043;-82
2022/10/26 04:53:47;;;;;;;17.10;10.70;;;9.20;99.90;;;;;;5113940;28;20046;-82
2022/10/26 04:56:12;;;;;;;20.48;10.23;;;9.20;99.90;;;;;;5112742;28;20108;-81
2022/10/26 04:58:38;;;;;;;19.17;12.27;;;9.20;99.90;;;;;;5113634;28;20038;-82
2022/10/26 05:01:04;;;;;;;20.23;11.38;;;9.30;99.90;;;;;;5113911;28;20040;-82
2022/10/26 05:03:29;;;;;;;17.92;10.75;;;9.20;99.90;;;;;;5095805;28;20536;-82
2022/10/26 05:05:58;;;;;;;17.90;10.50;;;9.30;99.90;;;;;;5113854;28;20092;-83
2022/10/26 05:08:24;;;;;;;19.55;10.77;;;9.40;99.90;;;;;;5113824;28;20044;-82
2022/10/26 05:10:49;;;;;;;22.23;10.75;;;9.30;99.90;;;;;;5113702;28;20036;-82
2022/10/26 05:13:16;;;;;;;16.70;9.93;;;9.30;99.90;;;;;;5113789;28;20046;-82
2022/10/26 05:15:41;;;;;;;21.90;11.35;;;9.30;99.90;;;;;;5113818;28;20032;-86
2022/10/26 05:18:08;;;;;;;18.63;9.98;;;9.30;99.90;;;;;;5112596;28;20471;-86
2022/10/26 05:20:34;;;;;;;17.95;10.73;;;9.30;99.90;;;;;;5112507;28;20108;-80
2022/10/26 05:23:03;;;;;;;16.05;10.43;;;9.30;99.90;;;;;;5116423;28;20038;-82
2022/10/26 05:25:32;;;;;;;17.77;10.63;;;9.30;99.90;;;;;;5117180;28;20032;-82
2022/10/26 05:28:03;;;;;;;18.35;10.63;;;9.40;99.90;;;;;;5116983;28;20554;-82
2022/10/26 05:30:29;;;;;;;15.27;10.13;;;9.30;99.90;;;;;;5116116;28;20114;-81
2022/10/26 05:32:56;;;;;;;;;;;9.30;99.90;;;;;;5117783;27;20035;-83
2022/10/26 05:35:22;;;;;;;20.75;9.13;;;9.30;99.90;;;;;;5117306;28;19916;-82
2022/10/26 05:37:47;;;;;;;19.10;9.13;;;9.50;99.90;;;;;;5117254;28;20110;-83
2022/10/26 05:40:14;;;;;;;16.13;9.00;;;9.40;99.90;;;;;;5117035;28;20116;-84
2022/10/26 05:42:40;;;;;;;15.30;9.48;;;9.40;99.90;;;;;;5117207;28;20043;-83
2022/10/26 05:45:06;;;;;;;13.25;8.23;;;9.40;99.90;;;;;;5115973;28;20471;-83
2022/10/26 05:47:31;;;;;;;13.85;9.02;;;9.50;99.90;;;;;;5116966;28;20040;-83
2022/10/26 05:49:57;;;;;;;14.80;8.90;;;9.50;99.90;;;;;;5117116;28;20036;-83
2022/10/26 05:52:22;;;;;;;13.45;8.63;;;9.50;99.90;;;;;;5117012;28;20495;-83
2022/10/26 05:54:48;;;;;;;11.27;7.90;;;9.60;99.90;;;;;;5116927;28;20035;-83
2022/10/26 05:57:14;;;;;;;15.35;7.95;;;9.60;99.90;;;;;;5115552;28;20028;-84
2022/10/26 05:59:40;;;;;;;13.65;7.40;;;9.60;99.90;;;;;;5115651;28;20047;-84
2022/10/26 06:02:28;;;;;;;17.20;7.93;;;9.60;99.90;;;;;;5115844;28;20049;-82
2022/10/26 06:04:57;;;;;;;13.35;8.32;;;9.60;99.90;;;;;;5116806;28;20086;-83
2022/10/26 06:07:23;;;;;;;16.20;8.63;;;9.70;99.90;;;;;;5116553;28;20043;-80
2022/10/26 06:09:49;;;;;;;16.65;8.52;;;9.70;99.90;;;;;;5116518;28;20038;-81
2022/10/26 06:12:15;;;;;;;14.45;7.82;;;9.70;99.90;;;;;;5116376;28;20387;-81
2022/10/26 06:14:41;;;;;;;13.85;7.47;;;9.70;99.90;;;;;;5098145;28;20046;-84
2022/10/26 06:17:45;;;;;;;14.20;8.83;;;9.70;99.90;;;;;;5097937;28;20039;-81
2022/10/26 06:20:37;;;;;;;16.13;9.05;;;9.70;99.90;;;;;;5114932;28;20039;-83
2022/10/26 06:23:40;;;;;;;12.73;8.60;;;9.80;99.90;;;;;;5116299;28;20039;-80
2022/10/26 06:26:11;;;;;;;14.73;9.40;;;9.80;99.90;;;;;;5114593;28;20036;-82
2022/10/26 06:28:46;;;;;;;15.55;8.52;;;9.80;99.90;;;;;;5116649;28;20063;-83
2022/10/26 06:31:13;;;;;;;12.32;8.40;;;9.80;99.90;;;;;;5114858;28;20149;-79
2022/10/26 06:33:39;;;;;;;15.30;8.93;;;9.80;99.90;;;;;;5115922;28;20081;-83
2022/10/26 06:36:34;;;;;;;13.32;7.70;;;9.80;99.90;;;;;;5114943;28;20036;-80
2022/10/26 06:39:04;;;;;;;12.95;8.45;;;9.80;99.90;;;;;;5098848;28;20087;-81
2022/10/26 06:41:34;;;;;;;13.38;8.00;;;9.80;99.90;;;;;;5115939;28;20039;-83
2022/10/26 06:44:04;;;;;;;13.82;8.25;;;9.80;99.90;;;;;;5116008;28;20110;-80
2022/10/26 06:46:40;;;;;;;14.15;8.05;;;9.80;99.90;;;;;;5115800;28;20110;-78
2022/10/26 06:49:21;;;;;;;10.73;7.50;;;9.90;99.90;;;;;;5115817;28;20127;-79
2022/10/26 06:52:05;;;;;;;17.27;7.88;;;9.90;99.90;;;;;;5115798;28;20544;-82
2022/10/26 06:54:50;;;;;;;12.27;7.55;;;9.90;99.90;;;;;;5115659;28;20040;-83
2022/10/26 06:57:21;;;;;;;17.27;7.55;;;9.90;99.90;;;;;;5115341;28;20536;-82
2022/10/26 06:59:52;;;;;;;16.88;7.47;;;9.90;99.90;;;;;;5115195;28;20096;-83
2022/10/26 07:02:18;;;;;;;16.60;8.00;;;10.00;99.90;;;;;;5114502;28;20032;-82
2022/10/26 07:04:44;;;;;;;16.20;7.03;;;9.90;99.90;;;;;;5115578;28;20055;-82
2022/10/26 07:07:21;;;;;;;11.65;6.63;;;10.00;99.90;;;;;;5115419;28;20637;-84
2022/10/26 07:09:47;;;;;;;14.60;7.60;;;10.00;99.90;;;;;;5113815;28;20502;-73
2022/10/26 07:12:13;;;;;;;13.98;7.38;;;10.00;99.90;;;;;;5115401;28;20040;-81
2022/10/26 07:14:39;;;;;;;11.25;7.13;;;10.10;99.90;;;;;;5115363;28;20429;-78
2022/10/26 07:17:05;;;;;;;10.25;6.82;;;10.00;99.90;;;;;;5115095;28;20032;-80
2022/10/26 07:19:30;;;;;;;17.15;6.63;;;10.10;99.90;;;;;;5115225;28;20035;-82
2022/10/26 07:22:00;;;;;;;10.82;6.07;;;10.10;99.90;;;;;;5113716;28;20048;-82
2022/10/26 07:24:26;;;;;;;12.15;6.63;;;10.10;99.90;;;;;;5114794;28;20503;-81
2022/10/26 07:26:56;;;;;;;9.45;6.28;;;10.20;99.90;;;;;;5114858;28;20059;-77
2022/10/26 07:29:23;;;;;;;9.88;6.53;;;10.10;99.90;;;;;;5114992;28;20044;-79
2022/10/26 07:31:49;;;;;;;14.10;6.43;;;10.10;99.90;;;;;;5114952;28;20071;-78
2022/10/26 07:34:16;;;;;;;14.20;6.97;;;10.20;99.90;;;;;;5114989;28;20126;-79
2022/10/26 07:36:42;;;;;;;11.57;6.20;;;10.20;99.90;;;;;;5114950;28;20451;-78
2022/10/26 07:39:08;;;;;;;13.65;6.65;;;10.30;99.90;;;;;;5114809;28;20035;-82
2022/10/26 07:41:33;;;;;;;9.30;6.30;;;10.40;99.90;;;;;;5114874;28;20037;-78
2022/10/26 07:43:59;;;;;;;11.38;6.90;;;10.50;99.90;;;;;;5114636;28;20097;-82
2022/10/26 07:46:25;;;;;;;13.65;6.25;;;10.50;99.90;;;;;;5114582;28;20040;-84
2022/10/26 07:48:51;;;;;;;10.65;6.22;;;10.60;99.90;;;;;;5113230;28;20040;-83
2022/10/26 07:51:16;;;;;;;11.95;6.18;;;11.20;99.90;;;;;;5105829;28;20039;-82
2022/10/26 07:53:42;;;;;;;11.88;6.10;;;10.80;99.90;;;;;;5096074;28;20036;-83
2022/10/26 07:56:09;;;;;;;9.20;6.05;;;10.80;99.90;;;;;;5114343;28;20079;-83
2022/10/26 07:58:35;;;;;;;11.73;6.38;;;10.80;99.90;;;;;;5114142;28;20166;-83
2022/10/26 08:01:13;;;;;;;9.80;5.68;;;10.90;99.90;;;;;;5114416;28;20081;-82
2022/10/26 08:03:39;;;;;;;13.18;6.15;;;10.90;99.90;;;;;;5114370;28;20035;-83
2022/10/26 08:06:05;;;;;;;12.97;5.97;;;10.90;99.90;;;;;;5114035;28;20142;-83
2022/10/26 08:08:31;;;;;;;9.68;5.60;;;11.00;99.90;;;;;;5114111;28;20368;-83
2022/10/26 08:10:57;;;;;;;10.73;6.20;;;11.00;99.90;;;;;;5112787;28;20088;-83
2022/10/26 08:13:23;;;;;;;14.33;6.20;;;11.10;99.90;;;;;;5113748;28;20471;-82
2022/10/26 08:15:48;;;;;;;14.15;5.68;;;11.20;99.90;;;;;;5114135;28;20330;-83
2022/10/26 08:18:14;;;;;;;14.27;5.53;;;11.30;99.90;;;;;;5114130;28;20374;-82
2022/10/26 08:20:40;;;;;;;12.27;6.10;;;11.30;99.90;;;;;;5113851;28;20042;-82
2022/10/26 08:23:07;;;;;;;10.15;5.78;;;11.30;99.90;;;;;;5112424;28;20042;-82
2022/10/26 08:25:33;;;;;;;9.82;5.72;;;11.40;99.90;;;;;;5114092;28;20075;-83
2022/10/26 08:28:02;;;;;;;12.63;6.07;;;11.40;99.90;;;;;;5113666;28;20097;-82
2022/10/26 08:30:32;;;;;;;9.10;5.45;;;11.40;99.90;;;;;;5112602;28;20043;-82
2022/10/26 08:33:02;;;;;;;11.18;6.03;;;11.50;99.90;;;;;;5113877;28;20046;-83
2022/10/26 08:35:28;;;;;;;11.93;5.70;;;11.60;99.90;;;;;;5114162;28;20040;-83
2022/10/26 08:37:54;;;;;;;10.30;5.72;;;11.70;99.90;;;;;;5114053;28;20046;-83
2022/10/26 08:40:27;;;;;;;12.82;5.53;;;11.90;99.90;;;;;;5113821;28;20390;-83
2022/10/26 08:43:02;;;;;;;9.02;5.03;;;12.10;99.90;;;;;;5113780;28;20081;-83
2022/10/26 08:45:34;;;;;;;11.93;5.40;;;12.30;99.90;;;;;;5112753;28;20032;-83
2022/10/26 08:48:17;;;;;;;11.05;5.20;;;12.50;99.90;;;;;;5095276;28;20047;-82
2022/10/26 08:50:58;;;;;;;10.27;5.00;;;12.70;99.90;;;;;;5113879;28;20047;-82
2022/10/26 08:53:49;;;;;;;9.45;4.78;;;12.80;99.90;;;;;;5113768;28;20042;-82
2022/10/26 08:56:20;;;;;;;7.22;4.35;;;12.90;99.90;;;;;;5113730;28;20031;-83
2022/10/26 08:58:52;;;;;;;7.45;4.40;;;12.90;99.90;;;;;;5117693;28;20040;-82
2022/10/26 09:01:17;;;;;;;8.57;4.70;;;13.00;99.90;;;;;;5116723;28;20085;-83
2022/10/26 09:03:43;;;;;;;8.25;4.72;;;13.10;99.90;;;;;;5117399;28;20043;-82
2022/10/26 09:06:36;;;;;;;6.60;4.50;;;13.20;99.90;;;;;;5117392;28;20122;-82
2022/10/26 09:09:18;;;;;;;4.93;4.03;;;13.40;99.90;;;;;;5117240;28;20031;-82
2022/10/26 09:12:08;;;;;;;5.97;4.35;;;13.50;99.90;;;;;;5117473;28;20067;-82
2022/10/26 09:15:04;;;;;;;9.18;4.53;;;13.60;99.90;;;;;;5117390;28;20032;-82
2022/10/26 09:17:37;;;;;;;7.38;4.18;;;13.60;99.90;;;;;;5116971;28;20380;-82
2022/10/26 09:20:25;;;;;;;8.05;4.25;;;13.70;99.90;;;;;;5117257;28;20044;-82
2022/10/26 09:23:10;;;;;;;10.95;4.50;;;13.80;99.90;;;;;;5115892;28;20046;-82
2022/10/26 09:25:40;;;;;;;9.02;4.35;;;13.90;99.90;;;;;;5117175;28;20042;-81
2022/10/26 09:28:16;;;;;;;6.32;4.15;;;13.90;99.90;;;;;;5116733;28;20552;-81
2022/10/26 09:30:46;;;;;;;13.73;4.03;;;14.10;99.90;;;;;;5117031;28;20551;-82
2022/10/26 09:33:23;;;;;;;8.45;4.05;;;14.20;99.90;;;;;;5115949;28;20075;-82
2022/10/26 09:35:57;;;;;;;6.38;4.10;;;14.30;99.90;;;;;;5115991;28;20532;-81
2022/10/26 09:38:39;;;;;;;6.45;4.25;;;14.40;99.90;;;;;;5117410;28;20078;-82
2022/10/26 09:41:30;;;;;;;7.97;3.92;;;14.50;99.90;;;;;;5118858;28;20035;-82
2022/10/26 09:44:17;;;;;;;6.10;4.03;;;14.60;99.90;;;;;;5120429;28;20089;-83
2022/10/26 09:47:15;;;;;;;6.10;3.75;;;14.70;99.90;;;;;;5118318;28;20080;-82
2022/10/26 09:49:49;;;;;;;8.57;3.78;;;14.90;99.90;;;;;;5093126;28;20080;-82
2022/10/26 09:52:15;;;;;;;9.45;3.72;;;14.90;99.90;;;;;;5115632;28;20039;-83
2022/10/26 09:54:41;;;;;;;8.13;3.67;;;15.20;99.90;;;;;;5116711;28;20047;-83
2022/10/26 09:57:08;;;;;;;7.05;3.28;;;15.10;99.90;;;;;;5098335;28;20376;-83
2022/10/26 09:59:38;;;;;;;7.55;3.25;;;15.20;99.90;;;;;;5116918;28;20028;-82
2022/10/26 10:02:34;;;;;;;7.05;3.55;;;15.50;99.90;;;;;;5116714;28;20035;-82
2022/10/26 10:04:59;;;;;;;9.20;3.33;;;15.70;99.90;;;;;;5112368;28;20522;-82
2022/10/26 10:07:25;;;;;;;6.43;3.47;;;15.80;99.90;;;;;;5115986;28;20027;-83
2022/10/26 10:10:07;;;;;;;6.60;3.60;;;16.00;99.90;;;;;;5116073;28;20040;-83
2022/10/26 10:12:32;;;;;;;6.30;3.13;;;16.20;99.90;;;;;;5114996;28;20027;-83
2022/10/26 10:14:58;;;;;;;6.93;3.07;;;16.40;99.90;;;;;;5115031;28;20039;-82
2022/10/26 10:17:25;;;;;;;5.60;3.27;;;16.50;99.90;;;;;;5116308;28;20032;-85
2022/10/26 10:19:51;;;;;;;9.27;3.10;;;17.00;99.90;;;;;;5116396;28;20042;-82
2022/10/26 10:22:24;;;;;;;5.88;3.17;;;16.80;99.90;;;;;;5115658;28;20403;-83
2022/10/26 10:25:01;;;;;;;4.93;2.90;;;16.80;99.90;;;;;;5116013;27;20076;-82
2022/10/26 10:27:28;;;;;;;6.50;3.55;;;17.00;99.90;;;;;;5114567;28;20064;-75
2022/10/26 10:29:56;;;;;;;6.90;2.92;;;16.90;99.90;;;;;;5116060;28;20104;-78
2022/10/26 10:32:26;;;;;;;6.47;3.10;;;16.90;99.90;;;;;;5116061;28;20032;-76
2022/10/26 10:34:56;;;;;;;6.45;3.17;;;16.90;99.90;;;;;;5115584;28;20039;-82
2022/10/26 10:37:30;;;;;;;5.30;2.83;;;17.00;99.90;;;;;;5115910;28;20032;-83
2022/10/26 10:40:02;;;;;;;6.30;3.03;;;17.00;99.90;;;;;;5115962;28;20061;-82
2022/10/26 10:42:33;;;;;;;5.57;2.97;;;17.10;99.90;;;;;;5115638;28;20047;-83
2022/10/26 10:45:01;;;;;;;8.65;3.15;;;17.30;99.90;;;;;;5122434;28;20054;-79
2022/10/26 10:47:31;;;;;;;6.57;2.65;;;17.40;99.90;;;;;;5117215;28;20047;-82
2022/10/26 10:50:05;;;;;;;6.13;2.70;;;17.60;99.90;;;;;;5115718;28;20062;-82
2022/10/26 10:52:35;;;;;;;6.22;2.50;;;17.60;99.90;;;;;;5115563;28;20043;-82
2022/10/26 10:55:12;;;;;;;6.13;2.47;;;17.70;99.90;;;;;;5115334;28;20498;-80
2022/10/26 10:57:44;;;;;;;6.25;2.30;;;17.60;99.90;;;;;;5115723;28;20036;-81
2022/10/26 11:00:12;;;;;;;5.03;2.38;;;17.70;99.90;;;;;;5115487;28;20089;-84
2022/10/26 11:02:50;;;;;;;4.03;2.03;;;17.80;99.90;;;;;;5115376;28;20035;-82
2022/10/26 11:05:24;;;;;;;6.45;2.30;;;17.90;99.90;;;;;;5115249;28;20039;-80
2022/10/26 11:08:01;;;;;;;11.73;2.40;;;18.00;99.90;;;;;;5114097;28;20104;-89
2022/10/26 11:10:32;;;;;;;4.85;2.20;;;18.00;99.90;;;;;;5115213;28;20108;-84
2022/10/26 11:13:03;;;;;;;4.47;2.13;;;18.10;99.90;;;;;;5115339;28;20039;-83
2022/10/26 11:15:33;;;;;;;5.10;2.25;;;18.20;99.90;;;;;;5115024;28;20542;-81
2022/10/26 11:18:16;;;;;;;6.07;2.50;;;18.20;99.90;;;;;;5114983;28;20045;-81
2022/10/26 11:21:09;;;;;;;7.03;2.28;;;18.20;99.90;;;;;;5114511;28;20425;-80
2022/10/26 11:23:45;;;;;;;5.38;2.53;;;18.20;99.90;;;;;;5115182;28;20542;-81
2022/10/26 11:26:28;;;;;;;13.95;2.65;;;18.30;99.90;;;;;;5115004;28;20039;-81
2022/10/26 11:29:18;;;;;;;5.65;2.47;;;18.40;99.90;;;;;;5115176;28;20047;-84
2022/10/26 11:31:53;;;;;;;4.20;2.25;;;18.50;99.90;;;;;;5115142;28;20050;-80
2022/10/26 11:34:49;;;;;;;6.50;2.45;;;18.50;99.90;;;;;;5115161;28;20467;-79
2022/10/26 11:37:38;;;;;;;8.40;2.42;;;18.50;99.90;;;;;;5114763;28;20165;-79
2022/10/26 11:40:26;;;;;;;7.90;2.80;;;18.60;99.90;;;;;;5115012;28;20479;-80
2022/10/26 11:43:08;;;;;;;5.57;2.53;;;18.60;99.90;;;;;;5114593;28;20036;-79
2022/10/26 11:45:39;;;;;;;4.78;2.30;;;18.70;99.90;;;;;;5114364;28;20479;-79
2022/10/26 11:48:13;;;;;;;6.70;2.63;;;18.60;99.90;;;;;;5114162;28;20047;-80
2022/10/26 11:50:52;;;;;;;6.60;2.53;;;18.70;99.90;;;;;;5114266;28;20120;-79
2022/10/26 11:53:27;;;;;;;7.18;2.45;;;18.80;99.90;;;;;;5114463;28;20034;-81
2022/10/26 11:55:54;;;;;;;4.20;2.45;;;18.70;99.90;;;;;;5113266;28;20046;-80
2022/10/26 11:58:25;;;;;;;4.72;2.70;;;18.80;99.90;;;;;;5114449;28;20047;-74
2022/10/26 12:01:12;;;;;;;7.15;2.53;;;18.80;99.90;;;;;;5114435;28;20126;-79
2022/10/26 12:03:47;;;;;;;7.35;2.92;;;18.70;99.90;;;;;;5114461;28;20037;-81
2022/10/26 12:06:19;;;;;;;5.43;2.70;;;18.60;99.90;;;;;;5113829;28;20471;-80
2022/10/26 12:09:06;;;;;;;7.10;2.72;;;18.60;99.90;;;;;;5113462;28;20158;-80
2022/10/26 12:11:50;;;;;;;8.00;2.90;;;18.60;99.90;;;;;;5113681;28;20027;-80
2022/10/26 12:14:39;;;;;;;9.70;2.95;;;18.60;99.90;;;;;;5114042;28;20111;-80
2022/10/26 12:17:25;;;;;;;7.45;3.08;;;18.80;99.90;;;;;;5111711;28;20398;-80
2022/10/26 12:20:00;;;;;;;5.97;2.92;;;18.90;99.90;;;;;;5114023;28;20035;-80
2022/10/26 12:22:33;;;;;;;7.13;3.13;;;19.00;99.90;;;;;;5112948;28;20476;-80
2022/10/26 12:25:20;;;;;;;9.10;2.88;;;18.90;99.90;;;;;;5114005;28;20110;-80
2022/10/26 12:27:45;;;;;;;5.37;2.80;;;18.90;99.90;;;;;;5113506;28;20083;-80
2022/10/26 12:30:14;;;;;;;7.17;2.40;;;18.80;99.90;;;;;;5114051;28;20526;-80
2022/10/26 12:32:40;;;;;;;6.25;2.85;;;18.70;99.90;;;;;;5121106;28;20035;-80
2022/10/26 12:35:32;;;;;;;9.27;3.47;;;18.60;99.90;;;;;;5120511;27;20046;-79
2022/10/26 12:37:59;;;;;;;5.22;2.72;;;18.60;99.90;;;;;;5120523;28;20039;-77
2022/10/26 12:40:33;;;;;;;;;;;18.60;99.90;;;;;;5120996;27;20071;-80
2022/10/26 12:43:17;;;;;;;11.48;2.97;;;18.60;99.90;;;;;;5120677;27;19923;-79
2022/10/26 12:46:11;;;;;;;7.53;2.78;;;18.80;99.90;;;;;;5119155;28;20039;-78
2022/10/26 12:48:44;;;;;;;5.85;3.08;;;18.80;99.90;;;;;;5119891;27;20054;-81
2022/10/26 12:51:20;;;;;;;9.50;3.00;;;18.80;99.90;;;;;;5120738;27;20039;-81
2022/10/26 12:54:09;;;;;;;6.10;3.17;;;18.80;99.90;;;;;;5120601;27;20082;-80
2022/10/26 12:57:08;;;;;;;7.60;2.90;;;18.80;99.90;;;;;;5114654;28;20051;-81
2022/10/26 13:00:01;;;;;;;6.55;3.20;;;18.70;99.90;;;;;;5120381;27;20497;-80
2022/10/26 13:02:43;;;;;;;8.35;3.10;;;18.70;99.90;;;;;;5120154;27;20402;-81
2022/10/26 13:05:38;;;;;;;10.00;3.00;;;18.70;99.90;;;;;;5120413;27;20035;-81
2022/10/26 13:08:08;;;;;;;5.57;3.30;;;18.70;99.90;;;;;;5119440;28;20031;-80